Time;durP1;ratioP1;P1;durP2;ratioP2;P2;SDS_P1;SDS_P2;PMS_P1;PMS_P2;Temp;Humidity;BMP_temperature;BMP_pressure;BME280_temperature;BME280_humidity;BME280_pressure;Samples;Min_cycle;Max_cycle;Signal;HPM_P1;HPM_P2
2024/02/14 00:00:35;;;;;;;21.45;11.50;;;;;;;;;;6101611;23;20033;-95
2024/02/14 00:03:01;;;;;;;22.55;10.68;;;;;;;;;;6101017;23;20065;-92
2024/02/14 00:05:28;;;;;;;19.48;10.48;;;;;;;;;;6101053;23;20008;-95
2024/02/14 00:07:54;;;;;;;18.05;10.45;;;;;;;;;;6101004;23;20026;-93
2024/02/14 00:10:21;;;;;;;15.40;9.32;;;;;;;;;;6045589;23;1309707;-95
2024/02/14 00:12:48;;;;;;;18.33;10.23;;;;;;;;;;6101621;23;20109;-94
2024/02/14 00:15:14;;;;;;;20.33;11.05;;;;;;;;;;6102099;23;20093;-94
2024/02/14 00:17:40;;;;;;;17.77;9.82;;;;;;;;;;6102289;23;20013;-92
2024/02/14 00:20:06;;;;;;;20.27;10.30;;;;;;;;;;6102355;23;20006;-90
2024/02/14 00:22:33;;;;;;;21.80;11.40;;;;;;;;;;6102111;23;20072;-91
2024/02/14 00:24:59;;;;;;;24.08;10.70;;;;;;;;;;6102290;23;20452;-95
2024/02/14 00:27:26;;;;;;;19.05;10.48;;;;;;;;;;6102467;23;20133;-93
2024/02/14 00:29:53;;;;;;;16.15;9.18;;;;;;;;;;6102020;23;20008;-92
2024/02/14 00:32:20;;;;;;;17.00;9.85;;;;;;;;;;6102100;23;20474;-93
2024/02/14 00:34:46;;;;;;;18.27;10.90;;;;;;;;;;6102265;23;20313;-92
2024/02/14 00:37:13;;;;;;;19.17;10.43;;;;;;;;;;6127981;23;20001;-95
2024/02/14 00:39:39;;;;;;;17.63;9.65;;;;;;;;;;6102130;23;20006;-96
2024/02/14 00:42:05;;;;;;;20.60;9.98;;;;;;;;;;6101855;23;20420;-95
2024/02/14 00:44:31;;;;;;;18.35;9.63;;;;;;;;;;6102419;23;20002;-94
2024/02/14 00:47:02;;;;;;;15.23;9.57;;;;;;;;;;6102680;23;20014;-92
2024/02/14 00:49:28;;;;;;;14.25;9.60;;;;;;;;;;6101888;23;20428;-93
2024/02/14 00:51:55;;;;;;;18.73;9.57;;;;;;;;;;6102141;23;20021;-93
2024/02/14 00:54:21;;;;;;;16.65;9.82;;;;;;;;;;6127675;23;20428;-95
2024/02/14 00:56:47;;;;;;;19.27;10.57;;;;;;;;;;6102470;23;20006;-93
2024/02/14 00:59:13;;;;;;;18.30;10.73;;;;;;;;;;6102493;23;20460;-95
2024/02/14 01:01:40;;;;;;;25.98;12.05;;;;;;;;;;6102795;23;20037;-95
2024/02/14 01:04:07;;;;;;;17.75;10.52;;;;;;;;;;6103624;23;20093;-93
2024/02/14 01:06:33;;;;;;;18.55;10.00;;;;;;;;;;6102102;23;20013;-93
2024/02/14 01:08:59;;;;;;;19.40;11.52;;;;;;;;;;6102276;23;20009;-94
2024/02/14 01:11:25;;;;;;;21.98;11.63;;;;;;;;;;6127706;23;20026;-92
2024/02/14 01:13:51;;;;;;;21.00;10.85;;;;;;;;;;6101493;23;20034;-93
2024/02/14 01:16:18;;;;;;;19.38;11.32;;;;;;;;;;6103067;23;20034;-93
2024/02/14 01:18:44;;;;;;;16.85;9.85;;;;;;;;;;6102032;23;20502;-92
2024/02/14 01:21:10;;;;;;;17.00;10.50;;;;;;;;;;6103387;23;20420;-93
2024/02/14 01:23:36;;;;;;;16.90;9.90;;;;;;;;;;6103115;23;20012;-92
2024/02/14 01:26:02;;;;;;;14.30;8.60;;;;;;;;;;6104447;23;20064;-94
2024/02/14 01:28:28;;;;;;;16.20;10.15;;;;;;;;;;6117184;23;20042;-93
2024/02/14 01:30:56;;;;;;;15.88;9.75;;;;;;;;;;6130779;23;20053;-92
2024/02/14 01:33:22;;;;;;;18.60;9.80;;;;;;;;;;6115979;23;20018;-93
2024/02/14 01:35:49;;;;;;;17.23;9.98;;;;;;;;;;6103960;23;20064;-94
2024/02/14 01:38:15;;;;;;;18.98;10.55;;;;;;;;;;6129595;23;20073;-93
2024/02/14 01:40:44;;;;;;;22.67;11.00;;;;;;;;;;6104308;23;20006;-93
2024/02/14 01:43:11;;;;;;;19.75;9.32;;;;;;;;;;6103335;23;20006;-93
2024/02/14 01:45:38;;;;;;;19.55;10.55;;;;;;;;;;6103549;23;20081;-92
2024/02/14 01:48:06;;;;;;;17.73;11.13;;;;;;;;;;6103277;23;20041;-93
2024/02/14 01:50:32;;;;;;;17.10;10.30;;;;;;;;;;6103942;23;20008;-91
2024/02/14 01:53:00;;;;;;;21.58;12.20;;;;;;;;;;6103936;23;20045;-92
2024/02/14 01:55:27;;;;;;;18.58;11.30;;;;;;;;;;6104215;23;20002;-92
2024/02/14 01:57:54;;;;;;;23.10;12.00;;;;;;;;;;6129519;23;20006;-93
2024/02/14 02:00:20;;;;;;;21.02;10.73;;;;;;;;;;6103717;23;20026;-93
2024/02/14 02:02:47;;;;;;;17.65;10.77;;;;;;;;;;6103765;23;20028;-93
2024/02/14 02:05:13;;;;;;;19.52;12.13;;;;;;;;;;6103806;23;20009;-93
2024/02/14 02:07:42;;;;;;;18.50;12.13;;;;;;;;;;6103770;23;20006;-92
2024/02/14 02:10:12;;;;;;;22.23;12.75;;;;;;;;;;6103220;23;20459;-93
2024/02/14 02:12:38;;;;;;;20.58;13.00;;;;;;;;;;6103693;23;20017;-94
2024/02/14 02:15:09;;;;;;;19.85;12.13;;;;;;;;;;6129450;23;20099;-92
2024/02/14 02:17:36;;;;;;;17.80;10.98;;;;;;;;;;6103620;23;20006;-92
2024/02/14 02:20:02;;;;;;;22.75;12.05;;;;;;;;;;6103411;23;20104;-93
2024/02/14 02:22:35;;;;;;;16.98;10.90;;;;;;;;;;6102904;23;20006;-92
2024/02/14 02:25:07;;;;;;;18.33;11.90;;;;;;;;;;6102954;23;20436;-93
2024/02/14 02:27:37;;;;;;;20.42;13.32;;;;;;;;;;6103501;23;20100;-92
2024/02/14 02:30:05;;;;;;;19.42;12.02;;;;;;;;;;6103651;23;20430;-93
2024/02/14 02:32:31;;;;;;;23.48;13.25;;;;;;;;;;6103496;23;20014;-92
2024/02/14 02:34:58;;;;;;;18.77;11.73;;;;;;;;;;6103106;23;20089;-92
2024/02/14 02:37:24;;;;;;;22.08;13.02;;;;;;;;;;6103230;23;20067;-92
2024/02/14 02:39:51;;;;;;;22.08;12.93;;;;;;;;;;6103191;23;20006;-94
2024/02/14 02:42:18;;;;;;;23.58;13.60;;;;;;;;;;6103607;23;20470;-93
2024/02/14 02:44:46;;;;;;;21.92;12.90;;;;;;;;;;6103361;23;20048;-93
2024/02/14 02:47:12;;;;;;;27.52;12.88;;;;;;;;;;6103396;23;20009;-92
2024/02/14 02:49:39;;;;;;;26.15;13.73;;;;;;;;;;6103326;23;20044;-92
2024/02/14 02:52:05;;;;;;;25.45;13.70;;;;;;;;;;6128705;23;20002;-92
2024/02/14 02:54:31;;;;;;;29.27;15.20;;;;;;;;;;6130059;23;20026;-92
2024/02/14 02:56:58;;;;;;;28.13;14.70;;;;;;;;;;6103192;23;20013;-93
2024/02/14 02:59:24;;;;;;;31.48;17.05;;;;;;;;;;6102792;23;20006;-93
2024/02/14 03:01:50;;;;;;;32.05;17.27;;;;;;;;;;6104056;23;20442;-92
2024/02/14 03:04:16;;;;;;;35.15;17.42;;;;;;;;;;6104158;23;20017;-92
2024/02/14 03:06:44;;;;;;;26.50;15.25;;;;;;;;;;6103639;23;20009;-91
2024/02/14 03:09:10;;;;;;;25.33;14.63;;;;;;;;;;6111759;23;19998;-92
2024/02/14 03:11:37;;;;;;;21.55;12.93;;;;;;;;;;6129798;23;20034;-92
2024/02/14 03:14:04;;;;;;;19.98;13.00;;;;;;;;;;6117217;23;20057;-92
2024/02/14 03:16:30;;;;;;;22.38;13.77;;;;;;;;;;6103384;23;20002;-93
2024/02/14 03:18:56;;;;;;;22.40;12.40;;;;;;;;;;6103458;23;20014;-92
2024/02/14 03:21:23;;;;;;;19.90;11.85;;;;;;;;;;6103209;23;20085;-92
2024/02/14 03:23:49;;;;;;;19.65;11.60;;;;;;;;;;6102936;23;20006;-94
2024/02/14 03:26:15;;;;;;;21.52;12.18;;;;;;;;;;6102755;23;20093;-93
2024/02/14 03:28:41;;;;;;;24.70;11.85;;;;;;;;;;6102624;23;20005;-93
2024/02/14 03:31:07;;;;;;;25.70;11.52;;;;;;;;;;6102681;23;20009;-92
2024/02/14 03:33:33;;;;;;;20.60;11.80;;;;;;;;;;6103149;23;20137;-93
2024/02/14 03:35:59;;;;;;;20.10;11.15;;;;;;;;;;6102958;23;20013;-93
2024/02/14 03:38:26;;;;;;;21.25;11.43;;;;;;;;;;6102856;23;20010;-93
2024/02/14 03:40:52;;;;;;;16.77;10.68;;;;;;;;;;6102541;23;20119;-92
2024/02/14 03:43:19;;;;;;;22.13;11.38;;;;;;;;;;6102919;23;20031;-92
2024/02/14 03:45:46;;;;;;;22.50;10.80;;;;;;;;;;6102436;23;20013;-92
2024/02/14 03:48:12;;;;;;;19.30;10.50;;;;;;;;;;6103181;23;20045;-93
2024/02/14 03:50:39;;;;;;;19.67;10.40;;;;;;;;;;6102895;23;20011;-92
2024/02/14 03:53:05;;;;;;;18.10;10.32;;;;;;;;;;6102852;23;20052;-92
2024/02/14 03:55:31;;;;;;;18.15;9.40;;;;;;;;;;6102820;23;20006;-92
2024/02/14 03:57:57;;;;;;;15.65;9.38;;;;;;;;;;6102362;23;20006;-92
2024/02/14 04:00:23;;;;;;;15.00;8.90;;;;;;;;;;6102713;23;20006;-93
2024/02/14 04:02:53;;;;;;;16.73;9.27;;;;;;;;;;6102471;23;20045;-92
2024/02/14 04:05:19;;;;;;;20.67;10.15;;;;;;;;;;6103076;23;20010;-93
2024/02/14 04:07:50;;;;;;;16.30;9.32;;;;;;;;;;6102229;23;20005;-91
2024/02/14 04:10:16;;;;;;;19.00;9.32;;;;;;;;;;6101777;23;20057;-91
2024/02/14 04:12:42;;;;;;;14.63;8.60;;;;;;;;;;6101605;23;20037;-89
2024/02/14 04:15:09;;;;;;;17.90;9.75;;;;;;;;;;6101478;23;20488;-92
2024/02/14 04:17:35;;;;;;;19.15;9.70;;;;;;;;;;6101614;23;20483;-90
2024/02/14 04:20:01;;;;;;;18.05;9.70;;;;;;;;;;6102160;23;20016;-91
2024/02/14 04:22:27;;;;;;;20.20;10.05;;;;;;;;;;6101862;23;20006;-93
2024/02/14 04:24:53;;;;;;;16.58;9.35;;;;;;;;;;6101392;23;20010;-93
2024/02/14 04:27:19;;;;;;;15.32;9.05;;;;;;;;;;6102336;23;20005;-92
2024/02/14 04:29:46;;;;;;;20.15;10.95;;;;;;;;;;6102100;23;20006;-93
2024/02/14 04:32:13;;;;;;;23.45;11.13;;;;;;;;;;6103429;23;20010;-92
2024/02/14 04:34:39;;;;;;;18.15;10.35;;;;;;;;;;6102447;23;20006;-93
2024/02/14 04:37:12;;;;;;;20.38;11.02;;;;;;;;;;6102423;23;20009;-92
2024/02/14 04:39:38;;;;;;;21.33;10.40;;;;;;;;;;6102371;23;20054;-92
2024/02/14 04:42:05;;;;;;;19.92;9.90;;;;;;;;;;6104487;23;20006;-92
2024/02/14 04:44:32;;;;;;;22.25;11.35;;;;;;;;;;6103497;23;20369;-93
2024/02/14 04:46:58;;;;;;;19.40;11.05;;;;;;;;;;6102701;23;20006;-92
2024/02/14 04:49:25;;;;;;;15.13;9.30;;;;;;;;;;6104032;23;20006;-92
2024/02/14 04:51:54;;;;;;;15.68;9.30;;;;;;;;;;6129156;23;20001;-90
2024/02/14 04:54:20;;;;;;;24.05;10.93;;;;;;;;;;6123384;23;20028;-92
2024/02/14 04:56:46;;;;;;;22.15;11.80;;;;;;;;;;6102059;23;20013;-93
2024/02/14 04:59:13;;;;;;;25.05;13.05;;;;;;;;;;6103391;23;20010;-92
2024/02/14 05:01:42;;;;;;;35.10;15.98;;;;;;;;;;6104823;23;20009;-91
2024/02/14 05:04:08;;;;;;;28.40;14.65;;;;;;;;;;6105196;23;20012;-92
2024/02/14 05:06:34;;;;;;;31.10;15.95;;;;;;;;;;6105629;23;20043;-92
2024/02/14 05:09:00;;;;;;;33.25;16.45;;;;;;;;;;6104800;23;20006;-93
2024/02/14 05:11:26;;;;;;;36.42;16.40;;;;;;;;;;6105607;23;20022;-92
2024/02/14 05:13:52;;;;;;;30.88;16.48;;;;;;;;;;6105404;23;20354;-89
2024/02/14 05:16:19;;;;;;;34.25;15.70;;;;;;;;;;6105675;23;20324;-92
2024/02/14 05:18:45;;;;;;;26.25;15.05;;;;;;;;;;6104915;23;20432;-92
2024/02/14 05:21:11;;;;;;;34.63;15.50;;;;;;;;;;6105331;23;20013;-92
2024/02/14 05:23:37;;;;;;;28.60;15.88;;;;;;;;;;6105273;23;20091;-92
2024/02/14 05:26:04;;;;;;;30.48;16.10;;;;;;;;;;6105262;23;20002;-91
2024/02/14 05:28:30;;;;;;;38.28;18.90;;;;;;;;;;6104994;23;20010;-92
2024/02/14 05:30:57;;;;;;;55.95;23.02;;;;;;;;;;6105257;23;20006;-91
2024/02/14 05:33:23;;;;;;;45.72;20.58;;;;;;;;;;6104209;23;20463;-89
2024/02/14 05:35:49;;;;;;;52.40;23.05;;;;;;;;;;6104386;23;20009;-90
2024/02/14 05:38:16;;;;;;;57.90;25.15;;;;;;;;;;6105052;23;20010;-91
2024/02/14 05:40:43;;;;;;;74.82;28.25;;;;;;;;;;6104736;23;20088;-89
2024/02/14 05:43:10;;;;;;;80.38;29.88;;;;;;;;;;6104499;23;20017;-91
2024/02/14 05:45:37;;;;;;;78.03;29.65;;;;;;;;;;6104857;23;20103;-91
2024/02/14 05:48:03;;;;;;;78.40;30.95;;;;;;;;;;6104743;23;20006;-94
2024/02/14 05:50:29;;;;;;;74.93;31.00;;;;;;;;;;6104388;23;20314;-89
2024/02/14 05:52:57;;;;;;;68.03;29.63;;;;;;;;;;6104621;23;20020;-91
2024/02/14 05:55:24;;;;;;;67.18;28.83;;;;;;;;;;6104953;23;20010;-91
2024/02/14 05:57:52;;;;;;;57.63;26.27;;;;;;;;;;6104504;23;20006;-92
2024/02/14 06:00:18;;;;;;;76.63;32.97;;;;;;;;;;6105130;23;20006;-91
2024/02/14 06:02:45;;;;;;;56.72;27.38;;;;;;;;;;6104538;23;20016;-92
2024/02/14 06:05:12;;;;;;;75.55;30.10;;;;;;;;;;6104728;23;20432;-92
2024/02/14 06:07:38;;;;;;;73.13;30.15;;;;;;;;;;6104720;23;20013;-92
2024/02/14 06:10:06;;;;;;;78.22;31.42;;;;;;;;;;6103767;23;20078;-91
2024/02/14 06:12:32;;;;;;;53.58;24.33;;;;;;;;;;6102881;23;20014;-92
2024/02/14 06:14:58;;;;;;;34.03;15.07;;;;;;;;;;6103420;23;20454;-93
2024/02/14 06:17:26;;;;;;;33.38;16.95;;;;;;;;;;6103024;23;20012;-92
2024/02/14 06:19:53;;;;;;;28.27;14.35;;;;;;;;;;6102854;23;20005;-91
2024/02/14 06:22:20;;;;;;;30.83;14.93;;;;;;;;;;6102906;23;20028;-91
2024/02/14 06:24:48;;;;;;;26.10;13.35;;;;;;;;;;6103784;23;20080;-91
2024/02/14 06:27:14;;;;;;;24.13;12.38;;;;;;;;;;6103466;23;20033;-89
2024/02/14 06:29:44;;;;;;;24.25;10.57;;;;;;;;;;6103719;23;20010;-90
2024/02/14 06:32:12;;;;;;;24.88;10.10;;;;;;;;;;6114618;23;19998;-91
2024/02/14 06:34:38;;;;;;;22.42;10.75;;;;;;;;;;6130140;23;20004;-93
2024/02/14 06:37:04;;;;;;;17.00;8.85;;;;;;;;;;6114829;23;20323;-93
2024/02/14 06:39:32;;;;;;;21.13;9.13;;;;;;;;;;6103034;23;20009;-91
2024/02/14 06:41:58;;;;;;;22.38;10.32;;;;;;;;;;6102270;23;20013;-94
2024/02/14 06:44:24;;;;;;;19.92;8.15;;;;;;;;;;6102706;23;20454;-91
2024/02/14 06:46:51;;;;;;;18.70;8.02;;;;;;;;;;6102785;23;20037;-90
2024/02/14 06:49:17;;;;;;;12.45;8.23;;;;;;;;;;6102675;23;20016;-93
2024/02/14 06:51:44;;;;;;;18.38;8.15;;;;;;;;;;6103889;23;20081;-91
2024/02/14 06:54:12;;;;;;;12.88;7.80;;;;;;;;;;6102696;23;20072;-93
2024/02/14 06:56:38;;;;;;;14.40;9.02;;;;;;;;;;6103327;23;20002;-92
2024/02/14 06:59:05;;;;;;;13.05;7.72;;;;;;;;;;6102197;23;20029;-94
2024/02/14 07:01:31;;;;;;;18.55;10.82;;;;;;;;;;6102389;23;20002;-92
2024/02/14 07:03:58;;;;;;;17.88;11.25;;;;;;;;;;6102356;23;20336;-93
2024/02/14 07:06:24;;;;;;;21.35;11.10;;;;;;;;;;6102880;23;20007;-92
2024/02/14 07:08:51;;;;;;;22.65;17.63;;;;;;;;;;6103204;23;20010;-93
2024/02/14 07:11:17;;;;;;;23.98;21.70;;;;;;;;;;6102845;23;20025;-93
2024/02/14 07:13:43;;;;;;;18.38;16.48;;;;;;;;;;6102731;23;20045;-94
2024/02/14 07:16:09;;;;;;;19.95;13.10;;;;;;;;;;6102409;23;20006;-95
2024/02/14 07:18:36;;;;;;;16.25;14.55;;;;;;;;;;6103069;23;20006;-92
2024/02/14 07:21:05;;;;;;;16.30;12.88;;;;;;;;;;6102378;23;20009;-92
2024/02/14 07:23:32;;;;;;;16.88;14.15;;;;;;;;;;6106912;23;20068;-92
2024/02/14 07:25:58;;;;;;;14.80;12.82;;;;;;;;;;6102959;23;20085;-91
2024/02/14 07:28:24;;;;;;;16.60;10.98;;;;;;;;;;6102421;23;20006;-94
2024/02/14 07:30:51;;;;;;;16.77;11.48;;;;;;;;;;6102562;23;20010;-93
2024/02/14 07:33:17;;;;;;;18.95;13.30;;;;;;;;;;6102186;23;20121;-92
2024/02/14 07:35:43;;;;;;;20.45;14.85;;;;;;;;;;6102229;23;20098;-92
2024/02/14 07:38:09;;;;;;;19.55;15.90;;;;;;;;;;6102609;23;20092;-93
2024/02/14 07:40:51;;;;;;;20.95;16.83;;;;;;;;;;6102167;23;20064;-90
2024/02/14 07:43:17;;;;;;;25.95;22.27;;;;;;;;;;6101792;23;20057;-93
2024/02/14 07:45:43;;;;;;;28.52;18.88;;;;;;;;;;6102400;23;20006;-92
2024/02/14 07:48:09;;;;;;;20.67;14.27;;;;;;;;;;6102346;23;20089;-96
2024/02/14 07:50:36;;;;;;;19.02;13.18;;;;;;;;;;6101932;23;20028;-91
2024/02/14 07:53:03;;;;;;;17.17;14.23;;;;;;;;;;6101991;23;20017;-93
2024/02/14 07:55:29;;;;;;;15.85;12.05;;;;;;;;;;6101560;23;20519;-91
2024/02/14 07:57:55;;;;;;;15.88;13.85;;;;;;;;;;6102360;23;20013;-92
2024/02/14 08:00:24;;;;;;;17.92;12.52;;;;;;;;;;6102442;23;20375;-92
2024/02/14 08:02:50;;;;;;;17.92;13.27;;;;;;;;;;6101874;23;20057;-94
2024/02/14 08:05:16;;;;;;;17.23;14.05;;;;;;;;;;6101691;23;20006;-87
2024/02/14 08:07:43;;;;;;;22.10;14.65;;;;;;;;;;6102262;23;20041;-90
2024/02/14 08:10:10;;;;;;;18.98;13.35;;;;;;;;;;6103198;23;20017;-94
2024/02/14 08:12:36;;;;;;;17.73;12.98;;;;;;;;;;6098489;23;20006;-92
2024/02/14 08:15:04;;;;;;;15.32;11.40;;;;;;;;;;6112227;23;19997;-91
2024/02/14 08:17:30;;;;;;;15.90;13.98;;;;;;;;;;6128563;23;19998;-91
2024/02/14 08:19:57;;;;;;;14.73;10.80;;;;;;;;;;6115512;23;20006;-95
2024/02/14 08:22:23;;;;;;;13.27;11.00;;;;;;;;;;6128157;23;19998;-94
2024/02/14 08:24:49;;;;;;;14.80;12.00;;;;;;;;;;6102634;23;20006;-93
2024/02/14 08:27:15;;;;;;;16.55;12.82;;;;;;;;;;6102615;23;20006;-91
2024/02/14 08:29:41;;;;;;;16.17;13.27;;;;;;;;;;6102626;23;20002;-91
2024/02/14 08:32:07;;;;;;;17.02;11.88;;;;;;;;;;6127208;23;20033;-90
2024/02/14 08:34:33;;;;;;;15.43;13.80;;;;;;;;;;6102381;23;20109;-92
2024/02/14 08:36:59;;;;;;;18.73;16.15;;;;;;;;;;6102236;23;20009;-90
2024/02/14 08:39:27;;;;;;;20.70;18.70;;;;;;;;;;6102255;23;20017;-93
2024/02/14 08:41:53;;;;;;;22.55;20.50;;;;;;;;;;6102095;23;20013;-91
2024/02/14 08:44:19;;;;;;;18.02;15.30;;;;;;;;;;6101569;23;20070;-93
2024/02/14 08:46:48;;;;;;;17.58;15.60;;;;;;;;;;6102184;23;20002;-92
2024/02/14 08:49:14;;;;;;;17.63;14.32;;;;;;;;;;6101590;23;20021;-92
2024/02/14 08:51:42;;;;;;;15.07;12.05;;;;;;;;;;6101543;23;20087;-91
2024/02/14 08:54:08;;;;;;;17.75;13.95;;;;;;;;;;6100976;23;20149;-92
2024/02/14 08:56:35;;;;;;;22.05;17.00;;;;;;;;;;6101681;23;20006;-88
2024/02/14 08:59:06;;;;;;;18.92;13.98;;;;;;;;;;6101409;23;20006;-89
2024/02/14 09:01:32;;;;;;;16.00;14.20;;;;;;;;;;6101661;23;20017;-91
2024/02/14 09:03:59;;;;;;;18.42;13.98;;;;;;;;;;6126740;23;20006;-92
2024/02/14 09:06:29;;;;;;;17.85;15.95;;;;;;;;;;6100552;23;20010;-88
2024/02/14 09:08:55;;;;;;;18.73;16.83;;;;;;;;;;6101004;23;20009;-89
2024/02/14 09:11:22;;;;;;;13.85;12.35;;;;;;;;;;6100605;23;20026;-92
2024/02/14 09:13:50;;;;;;;19.38;17.35;;;;;;;;;;6100226;23;20448;-92
2024/02/14 09:16:17;;;;;;;17.75;15.52;;;;;;;;;;6101413;23;20085;-92
2024/02/14 09:18:46;;;;;;;16.90;15.02;;;;;;;;;;6101259;23;20010;-91
2024/02/14 09:21:14;;;;;;;19.65;17.75;;;;;;;;;;6101608;23;20412;-93
2024/02/14 09:23:40;;;;;;;15.07;13.45;;;;;;;;;;6101402;23;20010;-92
2024/02/14 09:26:07;;;;;;;20.27;18.33;;;;;;;;;;6127663;23;20420;-91
2024/02/14 09:28:34;;;;;;;17.15;10.85;;;;;;;;;;6126866;23;20013;-91
2024/02/14 09:31:00;;;;;;;20.40;16.33;;;;;;;;;;6101659;23;20010;-92
2024/02/14 09:33:27;;;;;;;15.82;14.20;;;;;;;;;;6100882;23;20018;-92
2024/02/14 09:35:53;;;;;;;17.05;15.35;;;;;;;;;;6101126;23;20006;-91
2024/02/14 09:38:19;;;;;;;19.80;18.00;;;;;;;;;;6101929;23;20056;-93
2024/02/14 09:40:45;;;;;;;15.13;13.10;;;;;;;;;;6101741;23;20002;-93
2024/02/14 09:43:35;;;;;;;18.90;17.00;;;;;;;;;;6101618;23;20316;-94
2024/02/14 09:46:02;;;;;;;16.45;14.65;;;;;;;;;;6084242;23;20034;-94
2024/02/14 09:48:30;;;;;;;18.92;17.02;;;;;;;;;;6103240;23;20085;-92
2024/02/14 09:50:57;;;;;;;14.80;12.88;;;;;;;;;;6104431;23;20012;-93
2024/02/14 09:53:25;;;;;;;10.50;9.40;;;;;;;;;;6106894;23;20021;-93
2024/02/14 09:55:52;;;;;;;9.68;8.68;;;;;;;;;;6104387;23;20028;-94
2024/02/14 09:58:18;;;;;;;13.98;9.52;;;;;;;;;;6107599;23;20030;-94
2024/02/14 10:00:44;;;;;;;11.65;9.38;;;;;;;;;;6119169;23;20017;-93
2024/02/14 10:03:11;;;;;;;10.00;8.40;;;;;;;;;;6130484;23;19994;-93
2024/02/14 10:05:37;;;;;;;10.63;9.48;;;;;;;;;;6104211;23;20013;-94
2024/02/14 10:08:04;;;;;;;9.55;6.50;;;;;;;;;;6103772;23;20016;-91
2024/02/14 10:10:34;;;;;;;8.95;6.90;;;;;;;;;;6102773;23;20014;-91
2024/02/14 10:13:00;;;;;;;12.05;9.73;;;;;;;;;;6103386;23;20022;-93
2024/02/14 10:15:26;;;;;;;9.88;8.88;;;;;;;;;;6103263;23;20423;-90
2024/02/14 10:17:53;;;;;;;11.45;8.38;;;;;;;;;;6102667;23;20009;-87
2024/02/14 10:20:21;;;;;;;14.60;13.35;;;;;;;;;;6101439;23;20084;-90
2024/02/14 10:22:48;;;;;;;12.07;10.98;;;;;;;;;;6101478;23;20093;-87
2024/02/14 10:25:14;;;;;;;11.98;10.95;;;;;;;;;;6101807;23;20043;-87
2024/02/14 10:27:41;;;;;;;11.57;10.25;;;;;;;;;;6101236;23;20423;-91
2024/02/14 10:30:10;;;;;;;11.38;10.15;;;;;;;;;;6102446;23;20094;-87
2024/02/14 10:32:37;;;;;;;15.93;10.88;;;;;;;;;;6102199;23;20010;-92
2024/02/14 10:35:08;;;;;;;15.23;13.93;;;;;;;;;;6102605;23;20013;-93
2024/02/14 10:37:35;;;;;;;9.52;8.45;;;;;;;;;;6105025;23;20038;-93
2024/02/14 10:40:04;;;;;;;14.38;13.15;;;;;;;;;;6102518;23;20006;-94
2024/02/14 10:42:33;;;;;;;21.35;19.67;;;;;;;;;;6103359;23;20006;-93
2024/02/14 10:45:00;;;;;;;26.67;24.35;;;;;;;;;;6102685;23;20397;-94
2024/02/14 10:47:31;;;;;;;28.23;26.13;;;;;;;;;;6102338;23;20068;-92
2024/02/14 10:50:02;;;;;;;24.88;23.02;;;;;;;;;;6103044;23;20006;-89
2024/02/14 10:52:35;;;;;;;28.40;26.35;;;;;;;;;;6102330;23;20013;-91
2024/02/14 10:55:05;;;;;;;23.52;21.80;;;;;;;;;;6128369;23;20080;-93
2024/02/14 10:57:32;;;;;;;25.88;24.02;;;;;;;;;;6102906;23;20013;-94
2024/02/14 11:00:00;;;;;;;20.52;18.98;;;;;;;;;;6102582;23;20029;-94
2024/02/14 11:02:30;;;;;;;26.80;24.95;;;;;;;;;;6128421;23;20040;-93
2024/02/14 11:04:56;;;;;;;27.25;25.15;;;;;;;;;;6129161;23;20006;-94
2024/02/14 11:07:25;;;;;;;27.95;25.48;;;;;;;;;;6102218;23;20009;-90
2024/02/14 11:10:09;;;;;;;26.20;24.33;;;;;;;;;;6102571;23;20457;-93
2024/02/14 11:12:41;;;;;;;23.52;21.52;;;;;;;;;;6105209;23;20010;-93
2024/02/14 11:15:18;;;;;;;20.85;18.98;;;;;;;;;;6104139;23;20016;-94
2024/02/14 11:17:44;;;;;;;20.83;19.13;;;;;;;;;;6105145;23;20013;-91
2024/02/14 11:20:16;;;;;;;53.90;50.50;;;;;;;;;;6102500;23;20010;-92
2024/02/14 11:22:59;;;;;;;40.13;37.25;;;;;;;;;;6103698;23;20012;-91
2024/02/14 11:25:32;;;;;;;27.90;25.95;;;;;;;;;;6104838;23;20380;-91
2024/02/14 11:27:59;;;;;;;29.03;26.80;;;;;;;;;;6130004;23;19998;-93
2024/02/14 11:30:32;;;;;;;48.50;45.13;;;;;;;;;;6105486;23;20006;-88
2024/02/14 11:33:14;;;;;;;46.42;43.30;;;;;;;;;;6128933;23;20005;-92
2024/02/14 11:35:45;;;;;;;28.70;26.65;;;;;;;;;;6104989;23;20013;-88
2024/02/14 11:38:11;;;;;;;38.30;35.55;;;;;;;;;;6105869;23;20001;-92
2024/02/14 11:40:39;;;;;;;17.30;15.77;;;;;;;;;;6105686;23;20035;-91
2024/02/14 11:43:05;;;;;;;16.15;14.95;;;;;;;;;;6114827;23;19986;-93
2024/02/14 11:45:31;;;;;;;14.38;12.95;;;;;;;;;;6128861;23;20066;-89
2024/02/14 11:47:57;;;;;;;12.65;8.75;;;;;;;;;;6118271;23;20013;-95
2024/02/14 11:50:24;;;;;;;17.77;13.32;;;;;;;;;;6103461;23;20017;-91
2024/02/14 11:52:53;;;;;;;15.98;14.23;;;;;;;;;;6128958;23;20014;-87
2024/02/14 11:55:32;;;;;;;13.77;8.70;;;;;;;;;;6104400;23;20006;-93
2024/02/14 11:57:58;;;;;;;14.55;13.15;;;;;;;;;;6128208;23;20013;-88
2024/02/14 12:00:25;;;;;;;13.30;11.95;;;;;;;;;;6103298;23;20016;-92
2024/02/14 12:02:52;;;;;;;15.93;14.43;;;;;;;;;;6102543;23;20376;-89
2024/02/14 12:05:19;;;;;;;17.67;16.17;;;;;;;;;;6102120;23;20033;-89
2024/02/14 12:07:45;;;;;;;15.40;13.40;;;;;;;;;;6102200;23;20428;-89
2024/02/14 12:10:12;;;;;;;11.25;10.02;;;;;;;;;;6101567;23;20013;-87
2024/02/14 12:12:39;;;;;;;14.48;12.63;;;;;;;;;;6103053;23;20010;-93
2024/02/14 12:15:06;;;;;;;16.90;14.50;;;;;;;;;;6101430;23;20017;-93
2024/02/14 12:17:33;;;;;;;16.33;10.82;;;;;;;;;;6101780;23;20010;-91
2024/02/14 12:20:14;;;;;;;14.23;12.35;;;;;;;;;;6101262;23;20017;-88
2024/02/14 12:22:41;;;;;;;19.33;17.73;;;;;;;;;;6100809;23;20006;-95
2024/02/14 12:25:10;;;;;;;12.60;9.23;;;;;;;;;;6101608;23;20006;-94
2024/02/14 12:27:38;;;;;;;12.77;10.90;;;;;;;;;;6100926;23;20010;-92
2024/02/14 12:30:08;;;;;;;13.23;10.43;;;;;;;;;;6100235;23;20081;-88
2024/02/14 12:32:34;;;;;;;13.35;10.65;;;;;;;;;;6101278;23;20020;-92
2024/02/14 12:35:00;;;;;;;16.98;15.35;;;;;;;;;;6103007;23;20117;-91
2024/02/14 12:37:26;;;;;;;23.40;21.48;;;;;;;;;;6127355;23;19998;-91
2024/02/14 12:39:53;;;;;;;26.85;24.85;;;;;;;;;;6102978;23;20424;-93
2024/02/14 12:42:25;;;;;;;18.65;17.10;;;;;;;;;;6102044;23;20002;-90
2024/02/14 12:44:52;;;;;;;12.25;10.38;;;;;;;;;;6100631;23;20060;-92
2024/02/14 12:47:21;;;;;;;23.63;21.80;;;;;;;;;;6101273;23;20002;-92
2024/02/14 12:49:48;;;;;;;14.77;13.57;;;;;;;;;;6101738;23;20089;-92
2024/02/14 12:52:14;;;;;;;19.27;17.77;;;;;;;;;;6101229;23;20474;-94
2024/02/14 12:54:40;;;;;;;23.17;21.52;;;;;;;;;;6101996;23;20006;-93
2024/02/14 12:57:07;;;;;;;16.25;14.60;;;;;;;;;;6101442;23;20009;-93
2024/02/14 12:59:33;;;;;;;12.65;11.45;;;;;;;;;;6101846;23;20010;-92
2024/02/14 13:01:59;;;;;;;13.15;11.85;;;;;;;;;;6101484;23;20010;-93
2024/02/14 13:04:25;;;;;;;17.42;15.85;;;;;;;;;;6102097;23;20006;-92
2024/02/14 13:06:52;;;;;;;13.30;11.27;;;;;;;;;;6103099;23;20017;-93
2024/02/14 13:09:18;;;;;;;10.30;9.27;;;;;;;;;;6101851;23;20010;-93
2024/02/14 13:11:44;;;;;;;7.95;6.15;;;;;;;;;;6100896;23;20025;-92
2024/02/14 13:14:10;;;;;;;13.35;12.00;;;;;;;;;;6101867;23;20018;-92
2024/02/14 13:16:36;;;;;;;9.95;8.70;;;;;;;;;;6103115;23;20013;-92
2024/02/14 13:19:02;;;;;;;14.80;13.13;;;;;;;;;;6102224;23;20034;-92
2024/02/14 13:21:28;;;;;;;27.73;25.83;;;;;;;;;;6104576;23;20006;-93
2024/02/14 13:23:57;;;;;;;18.35;16.52;;;;;;;;;;6105328;23;20041;-93
2024/02/14 13:26:23;;;;;;;15.43;14.10;;;;;;;;;;6105048;23;20002;-92
2024/02/14 13:28:50;;;;;;;17.67;16.15;;;;;;;;;;6123389;23;19994;-88
2024/02/14 13:31:16;;;;;;;13.18;10.90;;;;;;;;;;6130932;23;19997;-88
2024/02/14 13:33:42;;;;;;;17.40;16.05;;;;;;;;;;6117259;23;20021;-91
2024/02/14 13:36:09;;;;;;;21.65;19.92;;;;;;;;;;6105697;23;20005;-93
2024/02/14 13:38:35;;;;;;;11.73;10.68;;;;;;;;;;6103388;23;20017;-93
2024/02/14 13:41:01;;;;;;;11.02;7.47;;;;;;;;;;6103204;23;20009;-92
2024/02/14 13:43:27;;;;;;;21.10;19.42;;;;;;;;;;6103641;23;20336;-92
2024/02/14 13:45:54;;;;;;;13.18;10.77;;;;;;;;;;6103785;23;20002;-91
2024/02/14 13:48:20;;;;;;;12.02;10.68;;;;;;;;;;6129041;23;20002;-92
2024/02/14 13:50:46;;;;;;;13.95;12.63;;;;;;;;;;6102847;23;19998;-87
2024/02/14 13:53:12;;;;;;;13.25;12.18;;;;;;;;;;6106115;23;20013;-89
2024/02/14 13:55:41;;;;;;;14.95;13.23;;;;;;;;;;6104562;23;20005;-91
2024/02/14 13:58:13;;;;;;;18.95;17.05;;;;;;;;;;6105622;23;20113;-93
2024/02/14 14:00:40;;;;;;;16.23;13.75;;;;;;;;;;6105780;23;20034;-93
2024/02/14 14:03:06;;;;;;;19.08;17.27;;;;;;;;;;6104922;23;20005;-92
2024/02/14 14:05:33;;;;;;;20.20;18.45;;;;;;;;;;6105174;23;20148;-93
2024/02/14 14:08:00;;;;;;;13.88;12.77;;;;;;;;;;6103542;23;20041;-94
2024/02/14 14:10:27;;;;;;;18.25;15.52;;;;;;;;;;6104484;23;20014;-89
2024/02/14 14:12:54;;;;;;;21.52;19.73;;;;;;;;;;6113203;23;20006;-93
2024/02/14 14:15:22;;;;;;;15.80;14.45;;;;;;;;;;6136060;23;20061;-94
2024/02/14 14:17:48;;;;;;;17.10;15.75;;;;;;;;;;6106246;23;20013;-92